Westerville, Iowa
Current Conditions -  °F | °C
As of 9:10 AM on Friday 19 Dec 2014 (Local Time) from KLWD Reporting Station
Haze Haze  
Wind Chill: 29°   Ceiling: 400
Heat Index: 29°   Visibility: 4mi
Dew Point: 27°   Wind: 3mph
Humidity: 92%   Direction: 160°SSE
Pressure: 30.27"   Gusts: NA
Location:  40.8106°N, 93.9578°W
Report Text: KLWD 191510Z AUTO 16003KT 4SM BR BKN004 OVC028 M02/M03 A3027 RMK AO2 T10171028
Loading
Personal Weather Stations






























Interactive Weather Map New forecast layout! Learn more

10-Day Weather Forecast

Advertisements
Track Severe Weather on mobile